Friday, November 24, 2017, 1:15 PM GMT
Back to Local

CWRK, Bancroft Automatic Weather Reporting System

Location: , , Canada Lat: 45.067
Local Time: 1:15 PM GMT (13:15 GMT) Lon: -77.867
Time Zone: GMT Elev: 1085 ft

Show me the last for .
Show Coded

Time T Td Feel RH Dir Speed Gust Alt SLP Vis Weather Sky Remarks
2017-11-24 13:00 31 29 28 92 170° 3 - - 29.82 0 None
2017-11-24 12:00 32 30 - 93 180° 2 - - 29.84 0 None
2017-11-24 11:00 31 30 28 95 190° 3 - - 29.84 0 None
2017-11-24 10:00 32 31 28 97 200° 3 - - 29.84 0 None
2017-11-24 09:00 32 31 - 97 210° 2 - - 29.86 0 None
2017-11-24 08:00 32 31 28 98 200° 3 - - 29.87 0 None
2017-11-24 07:00 32 31 27 96 210° 5 - - 29.86 0 None
2017-11-24 06:00 31 31 26 96 220° 6 - - 29.85 0 None
2017-11-24 05:00 31 30 26 95 210° 6 - - 29.86 0 None
2017-11-24 04:00 31 28 27 86 210° 5 - - 29.86 0 None
2017-11-24 03:00 31 28 26 87 220° 6 - - 29.86 0 None
2017-11-24 02:00 33 28 27 80 220° 6 - - 29.86 0 None
2017-11-24 01:00 31 26 26 80 210° 6 - - 29.86 0 None
2017-11-24 00:00 32 24 26 73 220° 6 - - 29.87 0 None
2017-11-23 23:00 32 24 26 71 220° 6 - - 29.87 0 None
2017-11-23 22:00 31 23 26 72 210° 5 - - 29.87 0 None
2017-11-23 21:00 31 23 27 70 210° 5 - - 29.88 0 None
2017-11-23 20:00 32 23 26 68 220° 6 - - 29.89 0 None
2017-11-23 19:00 31 22 26 67 210° 6 - - 29.90 0 None
2017-11-23 18:00 30 22 25 70 210° 5 - - 29.93 0 None
2017-11-23 17:00 28 22 22 75 200° 6 - - 29.96 0 None
2017-11-23 16:00 27 21 20 77 200° 6 - - 30.00 0 None
2017-11-23 15:00 24 19 19 80 190° 5 - - 30.03 0 None
2017-11-23 14:00 24 18 17 78 200° 6 - - 30.04 0 None

Support USWX by starting your Amazon purchase here.